Time;durP1;ratioP1;P1;durP2;ratioP2;P2;SDS_P1;SDS_P2;PMS_P1;PMS_P2;Temp;Humidity;BMP_temperature;BMP_pressure;BME280_temperature;BME280_humidity;BME280_pressure;Samples;Min_cycle;Max_cycle;Signal;HPM_P1;HPM_P2
2022/03/17 00:00:56;;;;;;;8.50;3.15;;;7.80;99.90;;;;;;5055040;28;20393;-70
2022/03/17 00:03:22;;;;;;;10.98;2.50;;;7.90;99.90;;;;;;5055047;28;20025;-69
2022/03/17 00:05:48;;;;;;;10.77;3.38;;;7.90;99.90;;;;;;5054686;28;20569;-70
2022/03/17 00:08:17;;;;;;;10.95;2.70;;;7.90;99.90;;;;;;5054909;28;20474;-70
2022/03/17 00:10:43;;;;;;;7.65;3.28;;;8.00;99.90;;;;;;5055097;28;20421;-71
2022/03/17 00:13:11;;;;;;;8.30;2.65;;;8.00;99.90;;;;;;5054815;28;20032;-69
2022/03/17 00:15:39;;;;;;;11.20;3.42;;;7.90;99.90;;;;;;5054693;28;20025;-70
2022/03/17 00:18:05;;;;;;;11.15;2.90;;;7.80;99.90;;;;;;5054207;28;20029;-69
2022/03/17 00:20:31;;;;;;;7.78;2.28;;;7.70;99.90;;;;;;5054673;28;20371;-71
2022/03/17 00:22:56;;;;;;;11.10;3.00;;;7.60;99.90;;;;;;5054656;28;20060;-70
2022/03/17 00:25:22;;;;;;;14.85;3.08;;;7.60;99.90;;;;;;5054511;28;20028;-69
2022/03/17 00:27:48;;;;;;;12.60;3.47;;;7.70;99.90;;;;;;5054802;28;20036;-70
2022/03/17 00:30:13;;;;;;;10.85;2.60;;;7.80;99.90;;;;;;5054523;28;20017;-71
2022/03/17 00:32:39;;;;;;;9.93;3.67;;;7.80;99.90;;;;;;5036545;28;20402;-69
2022/03/17 00:37:52;;;;;;;7.68;2.72;;;7.90;99.90;;;;;;5054115;28;20040;-70
2022/03/17 00:40:17;;;;;;;8.70;3.00;;;7.90;99.90;;;;;;5054587;28;20017;-69
2022/03/17 00:42:44;;;;;;;12.25;3.55;;;7.90;99.90;;;;;;5054291;28;20029;-69
2022/03/17 00:45:10;;;;;;;16.25;3.58;;;7.90;99.90;;;;;;5054123;28;20021;-69
2022/03/17 00:47:37;;;;;;;8.68;3.10;;;7.80;99.90;;;;;;5054462;28;20024;-69
2022/03/17 00:50:03;;;;;;;14.32;3.00;;;7.80;99.90;;;;;;5054149;28;20020;-71
2022/03/17 00:52:29;;;;;;;9.50;3.22;;;7.80;99.90;;;;;;5054073;28;20029;-70
2022/03/17 00:54:55;;;;;;;15.48;3.83;;;7.80;99.90;;;;;;5054150;28;20021;-71
2022/03/17 00:57:20;;;;;;;11.45;3.78;;;7.70;99.90;;;;;;5053980;28;20021;-70
2022/03/17 00:59:47;;;;;;;10.20;2.90;;;7.70;99.90;;;;;;5053946;28;20040;-70
2022/03/17 01:02:12;;;;;;;10.57;4.40;;;7.60;99.90;;;;;;5053882;28;20029;-70
2022/03/17 01:04:38;;;;;;;9.35;3.30;;;7.70;99.90;;;;;;5053869;28;20163;-71
2022/03/17 01:07:04;;;;;;;14.15;3.00;;;7.70;99.90;;;;;;5054081;28;20029;-71
2022/03/17 01:09:30;;;;;;;10.73;3.40;;;7.60;99.90;;;;;;5054245;28;20017;-69
2022/03/17 01:11:56;;;;;;;11.23;3.20;;;7.60;99.90;;;;;;5053691;28;20102;-71
2022/03/17 01:14:22;;;;;;;8.82;2.75;;;7.60;99.90;;;;;;5053679;28;20071;-70
2022/03/17 01:16:47;;;;;;;14.00;2.97;;;7.70;99.90;;;;;;5054196;28;20175;-69
2022/03/17 01:19:13;;;;;;;12.10;3.00;;;7.70;99.90;;;;;;5053620;28;20434;-70
2022/03/17 01:21:39;;;;;;;10.07;3.47;;;7.90;99.90;;;;;;5053837;28;20039;-68
2022/03/17 01:24:05;;;;;;;10.02;2.50;;;7.90;99.90;;;;;;5053765;28;20033;-68
2022/03/17 01:26:30;;;;;;;8.20;2.08;;;7.90;99.90;;;;;;5053508;28;20021;-70
2022/03/17 01:28:56;;;;;;;12.27;2.58;;;7.90;99.90;;;;;;5053280;28;20418;-69
2022/03/17 01:31:23;;;;;;;9.25;2.63;;;7.90;99.90;;;;;;5053451;28;20172;-70
2022/03/17 01:33:49;;;;;;;14.85;2.78;;;7.90;99.90;;;;;;5053636;28;20043;-68
2022/03/17 01:36:15;;;;;;;12.00;2.92;;;7.90;99.90;;;;;;5053400;28;20021;-70
2022/03/17 01:38:40;;;;;;;7.95;3.10;;;7.90;99.90;;;;;;5053604;28;20028;-68
2022/03/17 01:41:06;;;;;;;10.05;2.50;;;8.00;99.90;;;;;;5053586;28;20038;-69
2022/03/17 01:43:31;;;;;;;9.88;2.05;;;7.90;99.90;;;;;;5053474;28;20385;-70
2022/03/17 01:45:57;;;;;;;9.80;2.45;;;7.90;99.90;;;;;;5053231;28;20029;-70
2022/03/17 01:48:23;;;;;;;8.65;2.90;;;7.80;99.90;;;;;;5053458;28;20024;-69
2022/03/17 01:50:50;;;;;;;11.15;1.95;;;7.70;99.90;;;;;;5053135;28;20151;-69
2022/03/17 01:53:15;;;;;;;8.95;2.42;;;7.70;99.90;;;;;;5053156;28;20036;-70
2022/03/17 01:55:41;;;;;;;11.20;2.67;;;7.70;99.90;;;;;;5053028;28;20477;-70
2022/03/17 01:58:07;;;;;;;6.07;1.90;;;7.60;99.90;;;;;;5053618;28;20036;-70
2022/03/17 02:00:33;;;;;;;9.10;2.63;;;7.50;99.90;;;;;;5053083;28;20029;-69
2022/03/17 02:03:00;;;;;;;8.13;2.33;;;7.50;99.90;;;;;;5053327;28;20021;-69
2022/03/17 02:05:26;;;;;;;10.68;2.17;;;7.50;99.90;;;;;;5052763;28;20051;-70
2022/03/17 02:07:53;;;;;;;11.07;2.00;;;7.60;99.90;;;;;;5053032;28;20501;-68
2022/03/17 02:10:21;;;;;;;7.38;2.00;;;7.60;99.90;;;;;;5052998;28;20029;-69
2022/03/17 02:15:32;;;;;;;11.63;2.25;;;7.60;99.90;;;;;;5053228;28;20128;-70
2022/03/17 02:17:59;;;;;;;9.68;2.67;;;7.50;99.90;;;;;;5052872;28;20021;-70
2022/03/17 02:20:25;;;;;;;10.90;2.78;;;7.50;99.90;;;;;;5052862;28;20029;-70
2022/03/17 02:22:52;;;;;;;10.13;2.40;;;7.50;99.90;;;;;;5052887;28;20075;-69
2022/03/17 02:25:35;;;;;;;8.40;1.83;;;7.40;99.90;;;;;;5052766;28;20115;-70
2022/03/17 02:28:04;;;;;;;8.10;2.58;;;7.40;99.90;;;;;;5053385;28;20017;-70
2022/03/17 02:30:31;;;;;;;8.48;2.28;;;7.30;99.90;;;;;;5052762;28;20099;-68
2022/03/17 02:33:09;;;;;;;9.90;2.03;;;7.20;99.90;;;;;;5034971;28;20127;-68
2022/03/17 02:35:37;;;;;;;12.05;2.30;;;7.30;99.90;;;;;;5053076;28;20390;-70
2022/03/17 02:38:04;;;;;;;7.75;1.95;;;7.30;99.90;;;;;;5052749;28;20083;-69
2022/03/17 02:40:32;;;;;;;11.32;2.35;;;7.30;99.90;;;;;;5054499;28;20431;-69
2022/03/17 02:42:58;;;;;;;8.45;2.10;;;7.20;99.90;;;;;;5056782;28;20108;-70
2022/03/17 02:45:24;;;;;;;9.27;2.35;;;7.10;99.90;;;;;;5056424;28;20163;-69
2022/03/17 02:47:51;;;;;;;11.35;2.72;;;7.10;99.90;;;;;;5056460;28;20076;-68
2022/03/17 02:50:16;;;;;;;8.93;2.05;;;7.10;99.90;;;;;;5056648;28;20025;-69
2022/03/17 02:52:42;;;;;;;10.18;2.67;;;7.10;99.90;;;;;;5056324;28;20099;-69
2022/03/17 02:55:11;;;;;;;8.90;2.00;;;7.10;99.90;;;;;;5056271;28;20068;-70
2022/03/17 02:57:40;;;;;;;12.90;2.17;;;7.00;99.90;;;;;;5056270;28;20104;-69
2022/03/17 03:00:08;;;;;;;8.07;2.08;;;7.00;99.90;;;;;;5056238;28;20029;-69
2022/03/17 03:02:34;;;;;;;12.70;2.88;;;6.90;99.90;;;;;;5056145;28;20029;-68
2022/03/17 03:04:59;;;;;;;8.77;2.35;;;6.90;99.90;;;;;;5055852;28;20056;-69
2022/03/17 03:07:25;;;;;;;8.85;2.13;;;6.80;99.90;;;;;;5056353;28;20024;-69
2022/03/17 03:09:51;;;;;;;10.13;2.42;;;6.80;99.90;;;;;;5056036;28;20025;-70
2022/03/17 03:12:17;;;;;;;9.50;1.90;;;6.70;99.90;;;;;;5055999;28;20091;-70
2022/03/17 03:14:43;;;;;;;8.45;2.67;;;6.70;99.90;;;;;;5056204;28;20036;-70
2022/03/17 03:17:09;;;;;;;8.18;2.50;;;6.60;99.90;;;;;;5055948;28;20057;-69
2022/03/17 03:19:34;;;;;;;8.75;2.00;;;6.50;99.90;;;;;;5055899;28;20025;-69
2022/03/17 03:22:01;;;;;;;8.95;1.80;;;6.50;99.90;;;;;;5056078;28;20028;-69
2022/03/17 03:24:27;;;;;;;8.57;2.70;;;6.40;99.90;;;;;;5037737;28;20052;-68
2022/03/17 03:26:52;;;;;;;13.52;2.75;;;6.40;99.90;;;;;;5055686;28;20473;-68
2022/03/17 03:29:27;;;;;;;6.78;2.63;;;6.40;99.90;;;;;;5055696;28;20031;-69
2022/03/17 03:31:56;;;;;;;5.75;1.73;;;6.40;99.90;;;;;;5055656;28;20017;-69
2022/03/17 03:34:22;;;;;;;11.65;2.28;;;6.30;99.90;;;;;;5055880;28;20056;-70
2022/03/17 03:39:33;;;;;;;7.18;2.10;;;6.10;99.90;;;;;;5055520;28;20132;-69
2022/03/17 03:41:58;;;;;;;8.93;2.15;;;6.10;99.90;;;;;;5055387;28;20524;-70
2022/03/17 03:44:24;;;;;;;11.43;2.72;;;6.10;99.90;;;;;;5055609;28;20029;-70
2022/03/17 03:46:50;;;;;;;8.93;2.00;;;6.00;99.90;;;;;;5037392;28;20467;-68
2022/03/17 03:49:16;;;;;;;4.88;1.65;;;6.00;99.90;;;;;;5055560;28;20055;-68
2022/03/17 03:51:42;;;;;;;13.57;2.47;;;6.00;99.90;;;;;;5037231;28;20473;-69
2022/03/17 03:54:14;;;;;;;7.85;1.95;;;6.00;99.90;;;;;;5055207;28;20059;-70
2022/03/17 03:56:48;;;;;;;8.07;2.15;;;6.00;99.90;;;;;;5055386;28;20021;-70
2022/03/17 04:01:44;;;;;;;10.38;1.88;;;5.90;99.90;;;;;;5054839;28;20021;-69
2022/03/17 04:04:16;;;;;;;9.88;2.83;;;5.80;99.90;;;;;;5055219;28;20469;-69
2022/03/17 04:06:46;;;;;;;10.68;2.28;;;5.70;99.90;;;;;;5054819;28;20048;-70
2022/03/17 04:09:16;;;;;;;7.45;1.85;;;5.80;99.90;;;;;;5055197;28;20488;-69
2022/03/17 04:11:43;;;;;;;8.52;2.00;;;5.80;99.90;;;;;;5054906;28;20029;-69
2022/03/17 04:14:12;;;;;;;9.85;2.13;;;5.70;99.90;;;;;;5054818;28;20029;-70
2022/03/17 04:16:38;;;;;;;7.18;1.67;;;5.70;99.90;;;;;;5054807;28;20036;-70
2022/03/17 04:19:05;;;;;;;8.25;2.40;;;5.70;99.90;;;;;;5054730;28;20470;-69
2022/03/17 04:21:31;;;;;;;5.53;1.70;;;5.70;99.90;;;;;;5054665;28;20025;-70
2022/03/17 04:23:57;;;;;;;7.05;1.92;;;5.60;99.90;;;;;;5054880;28;20095;-70
2022/03/17 04:26:23;;;;;;;8.48;1.90;;;5.50;99.90;;;;;;5054594;28;20025;-70
2022/03/17 04:28:49;;;;;;;14.95;2.25;;;5.50;99.90;;;;;;5054548;28;20422;-69
2022/03/17 04:31:15;;;;;;;6.65;1.90;;;5.40;99.90;;;;;;5054816;28;20013;-70
2022/03/17 04:33:41;;;;;;;8.20;2.15;;;5.30;99.90;;;;;;5054470;28;20116;-70
2022/03/17 04:36:10;;;;;;;10.60;2.80;;;5.30;99.90;;;;;;5054448;28;20025;-71
2022/03/17 04:38:36;;;;;;;7.90;1.90;;;5.40;99.90;;;;;;5054367;28;20099;-71
2022/03/17 04:41:02;;;;;;;9.00;1.85;;;5.40;99.90;;;;;;5054306;28;20143;-69
2022/03/17 04:43:28;;;;;;;11.82;2.00;;;5.40;99.90;;;;;;5054297;28;20433;-70
2022/03/17 04:45:53;;;;;;;9.45;2.30;;;5.40;99.90;;;;;;5054442;28;20021;-70
2022/03/17 04:48:19;;;;;;;11.93;1.80;;;5.40;99.90;;;;;;5054437;28;20021;-70
2022/03/17 04:50:45;;;;;;;8.93;1.95;;;5.30;99.90;;;;;;5054402;28;20470;-69
2022/03/17 04:55:58;;;;;;;10.35;2.10;;;5.40;99.90;;;;;;5054227;28;20151;-69
2022/03/17 04:58:24;;;;;;;10.93;1.95;;;5.40;99.90;;;;;;5053987;28;20033;-68
2022/03/17 05:00:53;;;;;;;10.98;2.70;;;5.40;99.90;;;;;;5053938;28;20025;-69
2022/03/17 05:03:20;;;;;;;5.32;1.63;;;5.20;99.90;;;;;;5053377;28;20037;-69
2022/03/17 05:05:46;;;;;;;7.32;2.08;;;5.10;99.90;;;;;;5053845;28;20048;-69
2022/03/17 05:08:12;;;;;;;12.82;3.00;;;5.00;99.90;;;;;;5054077;28;20071;-69
2022/03/17 05:10:38;;;;;;;9.38;2.75;;;4.90;99.90;;;;;;5035882;28;20111;-69
2022/03/17 05:13:09;;;;;;;10.40;2.13;;;4.80;99.90;;;;;;5053731;28;20032;-68
2022/03/17 05:15:35;;;;;;;12.13;2.45;;;4.80;99.90;;;;;;5053718;28;20039;-69
2022/03/17 05:18:02;;;;;;;8.73;2.20;;;4.90;99.90;;;;;;5054164;28;20029;-70
2022/03/17 05:20:28;;;;;;;8.63;2.30;;;5.00;99.90;;;;;;5053864;28;20104;-69
2022/03/17 05:22:54;;;;;;;11.18;2.40;;;5.00;99.90;;;;;;5053577;28;20052;-71
2022/03/17 05:25:20;;;;;;;10.65;2.65;;;5.10;99.90;;;;;;5053427;28;20025;-68
2022/03/17 05:27:49;;;;;;;8.65;2.47;;;5.10;99.90;;;;;;5053477;28;20021;-71
2022/03/17 05:30:16;;;;;;;10.38;2.72;;;5.00;99.90;;;;;;5053498;28;20120;-71
2022/03/17 05:32:47;;;;;;;5.70;2.08;;;5.10;99.90;;;;;;5053402;28;20029;-69
2022/03/17 05:35:14;;;;;;;7.95;1.98;;;5.00;99.90;;;;;;5053425;28;20021;-68
2022/03/17 05:37:40;;;;;;;14.95;3.58;;;5.00;99.90;;;;;;5053365;28;20079;-69
2022/03/17 05:40:10;;;;;;;15.07;3.63;;;4.90;99.90;;;;;;5053319;28;20055;-69
2022/03/17 05:42:36;;;;;;;8.10;1.97;;;4.90;99.90;;;;;;5053861;28;20040;-70
2022/03/17 05:45:03;;;;;;;7.53;2.25;;;4.80;99.90;;;;;;5053174;28;20033;-69
2022/03/17 05:47:40;;;;;;;10.15;2.58;;;4.70;99.90;;;;;;5053474;28;20024;-70
2022/03/17 05:50:09;;;;;;;12.88;2.40;;;4.60;99.90;;;;;;5053531;28;20052;-70
2022/03/17 05:52:36;;;;;;;9.32;2.42;;;4.50;99.90;;;;;;5053143;28;20021;-68
2022/03/17 05:55:02;;;;;;;7.75;2.38;;;4.40;99.90;;;;;;5053096;28;20047;-70
2022/03/17 05:57:27;;;;;;;11.43;2.75;;;4.40;99.90;;;;;;5053130;28;20021;-69
2022/03/17 05:59:55;;;;;;;6.18;2.00;;;4.30;99.90;;;;;;5053093;28;20032;-69
2022/03/17 06:02:20;;;;;;;7.70;2.38;;;4.20;99.90;;;;;;5053107;28;20087;-68
2022/03/17 06:04:46;;;;;;;7.93;2.13;;;4.20;99.90;;;;;;5053063;28;20489;-70
2022/03/17 06:07:12;;;;;;;8.75;2.00;;;4.10;99.90;;;;;;5053049;28;20031;-69
2022/03/17 06:09:41;;;;;;;9.27;2.00;;;4.00;99.90;;;;;;5053015;28;20109;-68
2022/03/17 06:12:08;;;;;;;8.93;2.20;;;3.90;99.90;;;;;;5053022;28;20025;-69
2022/03/17 06:14:34;;;;;;;13.63;2.58;;;3.90;99.90;;;;;;5053360;28;20021;-70
2022/03/17 06:17:00;;;;;;;12.15;3.17;;;3.90;99.90;;;;;;5057061;28;20508;-69
2022/03/17 06:19:26;;;;;;;11.55;2.05;;;3.90;99.90;;;;;;5056957;28;20021;-70
2022/03/17 06:21:52;;;;;;;9.20;2.20;;;3.90;99.90;;;;;;5057235;28;20021;-70
2022/03/17 06:24:17;;;;;;;10.70;2.22;;;4.10;99.90;;;;;;5057125;28;20029;-69
2022/03/17 06:26:43;;;;;;;9.57;2.65;;;4.10;99.90;;;;;;5057137;28;20032;-69
2022/03/17 06:29:09;;;;;;;7.90;2.53;;;4.10;99.90;;;;;;5057088;28;20029;-69
2022/03/17 06:31:37;;;;;;;9.80;2.20;;;4.20;99.90;;;;;;5057039;28;20017;-71
2022/03/17 06:34:02;;;;;;;10.43;2.15;;;4.30;99.90;;;;;;5056977;28;20024;-69
2022/03/17 06:36:29;;;;;;;9.82;2.25;;;4.40;99.90;;;;;;5057199;28;20033;-70
2022/03/17 06:38:54;;;;;;;9.93;2.55;;;4.60;99.90;;;;;;5056903;28;20107;-70
2022/03/17 06:41:20;;;;;;;5.32;1.80;;;4.60;99.90;;;;;;5056866;28;20049;-69
2022/03/17 06:43:46;;;;;;;12.70;2.95;;;4.70;99.90;;;;;;5056467;28;20055;-71
2022/03/17 06:46:11;;;;;;;20.80;3.30;;;4.70;99.90;;;;;;5056683;28;20017;-70
2022/03/17 06:48:37;;;;;;;8.43;2.63;;;4.70;99.90;;;;;;5056413;28;20500;-71
2022/03/17 06:51:03;;;;;;;8.52;3.00;;;4.60;99.90;;;;;;5056410;28;20049;-71
2022/03/17 06:53:28;;;;;;;10.68;2.83;;;4.60;99.90;;;;;;5056349;28;20028;-71
2022/03/17 06:55:54;;;;;;;15.88;3.45;;;4.50;99.90;;;;;;5056254;28;20025;-71
2022/03/17 06:58:20;;;;;;;10.38;2.90;;;4.60;99.90;;;;;;5056858;28;20083;-69
2022/03/17 07:00:45;;;;;;;9.30;2.85;;;4.60;99.90;;;;;;5056508;28;20021;-70
2022/03/17 07:03:11;;;;;;;12.32;3.15;;;4.70;99.90;;;;;;5056193;28;20035;-69
2022/03/17 07:05:36;;;;;;;9.35;2.97;;;4.80;99.90;;;;;;5056005;28;20049;-70
2022/03/17 07:08:02;;;;;;;6.63;2.50;;;4.90;99.90;;;;;;5056116;28;20025;-70
2022/03/17 07:10:29;;;;;;;9.63;3.08;;;5.00;99.90;;;;;;5055800;28;20033;-70
2022/03/17 07:12:55;;;;;;;17.73;3.67;;;5.00;99.90;;;;;;5056035;28;20154;-70
2022/03/17 07:15:21;;;;;;;11.73;3.28;;;5.10;99.90;;;;;;5056259;28;20096;-70
2022/03/17 07:17:46;;;;;;;10.13;3.38;;;5.10;99.90;;;;;;5056203;28;20109;-70
2022/03/17 07:20:15;;;;;;;7.10;2.40;;;5.20;99.90;;;;;;5055893;28;20032;-70
2022/03/17 07:22:46;;;;;;;11.02;3.78;;;5.30;99.90;;;;;;5055808;28;20025;-71
2022/03/17 07:25:12;;;;;;;13.52;4.28;;;5.30;99.90;;;;;;5055452;28;20474;-69
2022/03/17 07:27:46;;;;;;;11.82;4.80;;;5.30;99.90;;;;;;5055524;28;20036;-70
2022/03/17 07:30:18;;;;;;;16.48;4.60;;;5.40;99.90;;;;;;5055700;28;20143;-70
2022/03/17 07:32:55;;;;;;;9.27;3.50;;;5.50;99.90;;;;;;5055674;28;20029;-70
2022/03/17 07:35:25;;;;;;;9.95;3.67;;;5.60;99.90;;;;;;5055919;28;20032;-69
2022/03/17 07:37:52;;;;;;;10.93;2.83;;;5.70;99.90;;;;;;5056148;28;20029;-70
2022/03/17 07:40:18;;;;;;;8.90;3.85;;;5.80;99.90;;;;;;5056062;28;20067;-70
2022/03/17 07:42:44;;;;;;;12.43;3.47;;;5.90;99.90;;;;;;5055668;28;20032;-70
2022/03/17 07:45:11;;;;;;;9.32;3.80;;;6.10;99.90;;;;;;5055341;28;20021;-70
2022/03/17 07:47:44;;;;;;;11.30;3.55;;;6.40;99.90;;;;;;5055897;28;20104;-70
2022/03/17 07:50:11;;;;;;;10.63;3.70;;;6.60;99.90;;;;;;5055339;28;20053;-70
2022/03/17 07:52:36;;;;;;;11.00;4.05;;;6.80;99.90;;;;;;5055226;28;20021;-72
2022/03/17 07:55:02;;;;;;;7.60;3.33;;;7.00;99.90;;;;;;5054773;28;20051;-69
2022/03/17 07:57:28;;;;;;;7.40;2.83;;;7.20;99.90;;;;;;5055149;28;20052;-69
2022/03/17 07:59:54;;;;;;;12.90;4.13;;;7.30;99.90;;;;;;5055090;28;20031;-66
2022/03/17 08:02:20;;;;;;;8.00;3.08;;;7.50;99.90;;;;;;5055073;28;20033;-67
2022/03/17 08:04:48;;;;;;;10.65;3.95;;;7.70;99.90;;;;;;5055265;28;20025;-69
2022/03/17 08:07:14;;;;;;;12.98;4.05;;;8.00;99.90;;;;;;5055033;28;20017;-71
2022/03/17 08:09:39;;;;;;;13.15;3.58;;;8.30;99.90;;;;;;5054570;28;20066;-67
2022/03/17 08:12:06;;;;;;;10.27;2.53;;;;;;;;;;5054904;28;20394;-69
2022/03/17 08:14:32;;;;;;;9.70;2.92;;;;;;;;;;5055101;28;20066;-68
2022/03/17 08:16:58;;;;;;;8.30;2.42;;;;;;;;;;5054821;28;20108;-69
2022/03/17 08:19:24;;;;;;;13.30;3.00;;;;;;;;;;5054846;28;20045;-69
2022/03/17 08:21:52;;;;;;;7.18;2.55;;;;;;;;;;5054747;28;20024;-67
2022/03/17 08:24:18;;;;;;;5.75;1.95;;;;;;;;;;5054205;28;20106;-71
2022/03/17 08:26:44;;;;;;;7.90;2.47;;;;;;;;;;5054588;28;20067;-70
2022/03/17 08:29:10;;;;;;;10.82;2.83;;;;;;;;;;5054546;28;20021;-69
2022/03/17 08:31:36;;;;;;;6.85;2.47;;;;;;;;;;5054498;28;20032;-67
2022/03/17 08:34:02;;;;;;;10.25;2.60;;;;;;;;;;5054491;28;20484;-68
2022/03/17 08:36:28;;;;;;;9.88;2.92;;;;;;;;;;5054024;28;20025;-67
2022/03/17 08:38:54;;;;;;;12.30;2.33;;;;;;;;;;5053768;28;20044;-67
2022/03/17 08:41:21;;;;;;;8.02;2.22;;;;;;;;;;5054258;28;20473;-67
2022/03/17 08:43:47;;;;;;;9.10;2.10;;;;;;;;;;5054184;28;20115;-70
2022/03/17 08:51:42;;;;;;;7.60;2.33;;;;;;;;;;5053924;28;20044;-68
2022/03/17 08:54:10;;;;;;;9.32;2.47;;;;;;;;;;5054112;28;20021;-68
2022/03/17 08:56:36;;;;;;;10.25;2.15;;;;;;;;;;5053682;28;20112;-69
2022/03/17 08:59:03;;;;;;;8.95;2.08;;;;;;;;;;5053864;28;20025;-72
2022/03/17 09:01:29;;;;;;;7.13;1.88;;;;;;;;;;5053475;28;20041;-73
2022/03/17 09:03:55;;;;;;;8.07;2.00;;;;;;;;;;5053289;28;20029;-71
2022/03/17 09:06:22;;;;;;;10.50;2.22;;;;;;;;;;5053170;28;20045;-69
2022/03/17 09:08:48;;;;;;;11.20;2.65;;;;;;;;;;5054025;28;20024;-71
2022/03/17 09:11:15;;;;;;;7.78;2.05;;;;;;;;;;5053727;28;20469;-71
2022/03/17 09:13:41;;;;;;;8.02;2.40;;;;;;;;;;5053687;28;20017;-71
2022/03/17 09:16:07;;;;;;;13.60;2.30;;;;;;;;;;5053185;28;20029;-72
2022/03/17 09:18:33;;;;;;;8.00;1.88;;;;;;;;;;5053258;28;20057;-72
2022/03/17 09:21:00;;;;;;;9.73;2.88;;;;;;;;;;5053905;28;20040;-70
2022/03/17 09:23:26;;;;;;;10.05;2.10;;;;;;;;;;5053639;28;20032;-70
2022/03/17 09:25:53;;;;;;;7.68;2.05;;;;;;;;;;5053491;28;20032;-72
2022/03/17 09:28:19;;;;;;;6.18;2.30;;;;;;;;;;5053032;28;20033;-71
2022/03/17 09:30:45;;;;;;;6.50;1.98;;;;;;;;;;5053682;28;20027;-72
2022/03/17 09:33:11;;;;;;;6.95;2.35;;;;;;;;;;5035129;28;20028;-70
2022/03/17 09:35:37;;;;;;;7.30;2.28;;;;;;;;;;5053436;28;20029;-67
2022/03/17 09:38:05;;;;;;;7.68;2.20;;;;;;;;;;5052843;28;20112;-65
2022/03/17 09:40:31;;;;;;;9.88;2.30;;;;;;;;;;5053626;28;20059;-68
2022/03/17 09:45:42;;;;;;;5.18;2.00;;;;;;;;;;5053555;28;20044;-66
2022/03/17 09:48:13;;;;;;;6.00;1.70;;;;;;;;;;5052398;28;20031;-67
2022/03/17 09:50:40;;;;;;;6.25;1.70;;;;;;;;;;5053288;28;20116;-69
2022/03/17 09:53:06;;;;;;;5.47;1.73;;;;;;;;;;5053132;28;20028;-68
2022/03/17 09:55:34;;;;;;;7.82;1.75;;;;;;;;;;5053060;28;20107;-68
2022/03/17 09:58:00;;;;;;;5.35;2.20;;;;;;;;;;5053320;28;20024;-67
2022/03/17 10:00:47;;;;;;;6.78;1.85;;;;;;;;;;5035242;28;20401;-66
2022/03/17 10:03:12;;;;;;;5.38;1.77;;;;;;;;;;5052468;28;20037;-66
2022/03/17 10:05:38;;;;;;;5.90;1.83;;;;;;;;;;5052854;28;20068;-67
2022/03/17 10:08:04;;;;;;;9.50;2.22;;;;;;;;;;5052974;28;20021;-67
2022/03/17 10:10:37;;;;;;;4.90;1.60;;;;;;;;;;5052671;28;20104;-66
2022/03/17 10:13:16;;;;;;;5.28;1.40;;;;;;;;;;5052958;28;20017;-66
2022/03/17 10:15:44;;;;;;;2.88;1.27;;;;;;;;;;5052638;28;20095;-67
2022/03/17 10:18:23;;;;;;;6.70;1.65;;;;;;;;;;5052928;28;20110;-69
2022/03/17 10:21:10;;;;;;;5.90;1.60;;;;;;;;;;5052911;28;20123;-68
2022/03/17 10:24:02;;;;;;;10.85;2.25;;;9.00;99.90;;;;;;5052742;28;20531;-70
2022/03/17 10:26:35;;;;;;;5.05;1.90;;;31.50;37.00;;;;;;5053482;28;20021;-69
2022/03/17 10:29:08;;;;;;;4.68;1.48;;;;;;;;;;5052834;28;20025;-68
2022/03/17 10:31:52;;;;;;;3.65;1.27;;;;;;;;;;5052723;28;20523;-69
2022/03/17 10:34:19;;;;;;;4.97;1.70;;;;;;;;;;5053053;28;20029;-68
2022/03/17 10:36:45;;;;;;;5.20;1.63;;;;;;;;;;5052617;28;20052;-68
2022/03/17 10:39:12;;;;;;;8.70;2.13;;;;;;;;;;5052746;28;20032;-68
2022/03/17 10:41:42;;;;;;;4.15;1.40;;;;;;;;;;5052733;28;20028;-69
2022/03/17 10:44:11;;;;;;;4.97;1.35;;;;;;;;;;5052924;28;20025;-69
2022/03/17 10:46:37;;;;;;;3.35;1.52;;;;;;;;;;5052271;28;20024;-69
2022/03/17 10:49:07;;;;;;;5.47;1.60;;;;;;;;;;5052951;28;20029;-69
2022/03/17 10:51:33;;;;;;;6.35;1.50;;;;;;;;;;5052654;28;20044;-67
2022/03/17 10:54:06;;;;;;;3.20;1.20;;;;;;;;;;5052617;28;20081;-68
2022/03/17 10:56:34;;;;;;;5.05;1.92;;;;;;;;;;5052659;28;20021;-69
2022/03/17 10:59:00;;;;;;;4.63;1.40;;;;;;;;;;5052941;28;20104;-68
2022/03/17 11:01:43;;;;;;;7.75;1.75;;;;;;;;;;5054417;28;20393;-68
2022/03/17 11:04:09;;;;;;;5.38;1.83;;;;;;;;;;5056127;28;20051;-68
2022/03/17 11:06:38;;;;;;;7.57;1.70;;;;;;;;;;5055847;28;20075;-69
2022/03/17 11:09:04;;;;;;;7.38;1.60;;;;;;;;;;5056392;28;20032;-68
2022/03/17 11:11:31;;;;;;;4.13;1.52;;;;;;;;;;5055590;28;20025;-69
2022/03/17 11:13:58;;;;;;;7.80;1.40;;;;;;;;;;5056156;28;20021;-70
2022/03/17 11:16:46;;;;;;;3.90;1.05;;;;;;;;;;5056279;28;20028;-70
2022/03/17 11:19:13;;;;;;;;;;;;;;;;;;5056716;28;20497;-70
2022/03/17 11:21:39;;;;;;;8.13;1.83;;;;;;;;;;5056200;28;20004;-69
2022/03/17 11:24:06;;;;;;;4.07;1.52;;;;;;;;;;5056204;28;20018;-68
2022/03/17 11:26:37;;;;;;;7.55;1.63;;;;;;;;;;5055636;28;20025;-70
2022/03/17 11:29:06;;;;;;;7.97;1.58;;;;;;;;;;5046099;28;20036;-70
2022/03/17 11:31:54;;;;;;;8.38;1.65;;;;;;;;;;5042422;28;20104;-70
2022/03/17 11:34:38;;;;;;;5.23;1.20;;;;;;;;;;5053800;28;20025;-68
2022/03/17 11:37:33;;;;;;;4.18;1.23;;;;;;;;;;5035647;28;20255;-69
2022/03/17 11:40:13;;;;;;;5.50;1.15;;;;;;;;;;5022796;28;20501;-69
2022/03/17 11:42:49;;;;;;;4.50;1.50;;;31.40;36.10;;;;;;5035609;28;20037;-68
2022/03/17 11:45:15;;;;;;;3.15;1.23;;;25.60;39.10;;;;;;5035808;28;20474;-69
2022/03/17 11:47:49;;;;;;;5.78;1.45;;;21.90;43.80;;;;;;5035432;28;20029;-69
2022/03/17 11:50:22;;;;;;;4.53;1.35;;;;;;;;;;5035700;28;20029;-69
2022/03/17 11:52:57;;;;;;;6.85;1.80;;;;;;;;;;5035682;28;20017;-69
2022/03/17 11:55:48;;;;;;;5.32;1.60;;;;;;;;;;5035563;28;20101;-68
2022/03/17 11:58:24;;;;;;;2.70;1.10;;;;;;;;;;5035575;28;20025;-69
2022/03/17 12:00:54;;;;;;;4.18;1.60;;;;;;;;;;5035224;28;20021;-69
2022/03/17 12:03:30;;;;;;;7.32;1.30;;;;;;;;;;5035723;28;20087;-70
2022/03/17 12:06:16;;;;;;;3.28;1.10;;;;;;;;;;5035170;28;20077;-68
2022/03/17 12:09:04;;;;;;;6.38;1.48;;;;;;;;;;5035110;28;20029;-69
2022/03/17 12:11:33;;;;;;;6.22;1.40;;;;;;;;;;5034890;28;20540;-69
2022/03/17 12:14:14;;;;;;;4.70;1.58;;;;;;;;;;5034016;28;20021;-69
2022/03/17 12:16:51;;;;;;;7.88;1.48;;;;;;;;;;5034939;28;20026;-69
2022/03/17 12:19:33;;;;;;;3.45;1.15;;;;;;;;;;5035227;28;20116;-69
2022/03/17 12:22:02;;;;;;;4.60;1.10;;;;;;;;;;5035396;28;20075;-69
2022/03/17 12:24:39;;;;;;;3.55;1.33;;;;;;;;;;5034656;28;20026;-68
2022/03/17 12:27:14;;;;;;;7.05;1.30;;;;;;;;;;5034722;28;20025;-69
2022/03/17 12:29:41;;;;;;;5.47;1.13;;;;;;;;;;5034917;28;20045;-68
2022/03/17 12:32:15;;;;;;;4.13;1.13;;;;;;;;;;5035146;28;20517;-69
2022/03/17 12:34:43;;;;;;;5.95;1.70;;;;;;;;;;5034617;28;20026;-68
2022/03/17 12:37:09;;;;;;;7.45;1.55;;;;;;;;;;5034531;28;20041;-68
2022/03/17 12:39:36;;;;;;;5.25;1.30;;;;;;;;;;5034483;28;20021;-69
2022/03/17 12:42:12;;;;;;;6.20;1.60;;;;;;;;;;5016689;28;20021;-69
2022/03/17 12:44:46;;;;;;;5.97;1.67;;;;;;;;;;5034641;28;20025;-68
2022/03/17 12:47:13;;;;;;;5.75;1.30;;;;;;;;;;5034639;28;20080;-68
2022/03/17 12:49:40;;;;;;;8.68;1.40;;;;;;;;;;5034295;28;20018;-69
2022/03/17 12:52:13;;;;;;;5.28;1.50;;;;;;;;;;5034316;28;20104;-67
2022/03/17 12:54:39;;;;;;;6.40;1.48;;;;;;;;;;5034174;28;20100;-68
2022/03/17 12:57:05;;;;;;;7.32;1.15;;;;;;;;;;5034175;28;20061;-68
2022/03/17 12:59:33;;;;;;;5.45;1.65;;;;;;;;;;5034057;28;20359;-69
2022/03/17 13:02:00;;;;;;;4.80;1.35;;;;;;;;;;5034033;28;20071;-68
2022/03/17 13:04:27;;;;;;;9.93;1.67;;;;;;;;;;5034201;28;20036;-69
2022/03/17 13:06:56;;;;;;;9.68;1.95;;;;;;;;;;5033541;28;20057;-68
2022/03/17 13:09:31;;;;;;;5.93;2.00;;;20.00;46.80;;;;;;5034183;28;20025;-68
2022/03/17 13:14:52;;;;;;;9.00;1.45;;;15.30;61.30;;;;;;5051370;28;20032;-71
2022/03/17 13:17:36;;;;;;;4.18;1.45;;;15.40;65.30;;;;;;5053477;28;20029;-69
2022/03/17 13:20:29;;;;;;;6.93;1.35;;;15.30;62.20;;;;;;5054228;28;20022;-70
2022/03/17 13:23:02;;;;;;;3.42;1.38;;;15.30;64.20;;;;;;5051758;28;20037;-70
2022/03/17 13:25:30;;;;;;;7.68;1.35;;;15.40;62.80;;;;;;5053383;28;20542;-69
2022/03/17 13:27:57;;;;;;;2.60;1.27;;;15.20;60.80;;;;;;5053578;28;20025;-69
2022/03/17 13:30:23;;;;;;;7.45;2.67;;;15.30;61.90;;;;;;5053148;28;20425;-68
2022/03/17 13:33:06;;;;;;;4.70;1.83;;;15.10;60.70;;;;;;5053768;28;20029;-68
2022/03/17 13:35:37;;;;;;;6.25;1.23;;;15.10;61.40;;;;;;5054025;28;20170;-69
2022/03/17 13:38:07;;;;;;;7.80;2.08;;;15.20;62.40;;;;;;5053670;28;20036;-68
2022/03/17 13:40:45;;;;;;;13.18;3.47;;;15.10;63.00;;;;;;5053106;28;20024;-68
2022/03/17 13:43:17;;;;;;;7.80;2.53;;;15.00;63.60;;;;;;5053514;28;20033;-68
2022/03/17 13:45:45;;;;;;;5.65;1.50;;;15.10;65.00;;;;;;5053418;28;20028;-69
2022/03/17 13:48:13;;;;;;;4.70;1.50;;;15.00;66.20;;;;;;5053288;28;20100;-67
2022/03/17 13:50:39;;;;;;;7.93;1.85;;;15.10;65.50;;;;;;5053139;28;20021;-71
2022/03/17 13:53:10;;;;;;;6.97;1.50;;;15.10;64.50;;;;;;5053225;28;20068;-68
2022/03/17 13:55:42;;;;;;;5.10;1.85;;;15.10;66.50;;;;;;5052354;28;20422;-67